createdAt,value
2022-08-01T00:01:47.780Z,76.54
2022-08-01T00:06:55.636Z,76.21
2022-08-01T00:12:02.808Z,74.98001
2022-08-01T00:17:11.000Z,75.58
2022-08-01T00:22:19.607Z,76.47
2022-08-01T00:27:27.325Z,76.56
2022-08-01T00:32:34.810Z,76.81
2022-08-01T00:37:41.419Z,77.4
2022-08-01T00:42:49.812Z,77.22
2022-08-01T00:48:02.169Z,77.23001
2022-08-01T00:53:08.729Z,77.06
2022-08-01T00:58:16.075Z,76.39
2022-08-01T01:03:23.125Z,76.9
2022-08-01T01:08:31.813Z,76.78
2022-08-01T01:13:39.982Z,77.25
2022-08-01T01:18:48.531Z,77.63
2022-08-01T01:23:55.327Z,77.12
2022-08-01T01:29:03.653Z,76.13
2022-08-01T01:34:10.841Z,75.56
2022-08-01T01:39:18.055Z,71.78
2022-08-01T01:44:25.817Z,72.57
2022-08-01T01:49:32.403Z,73.66001
2022-08-01T01:54:41.172Z,74.18
2022-08-01T01:59:48.800Z,74.26
2022-08-01T02:04:56.800Z,74.67
2022-08-01T02:10:04.601Z,75.4
2022-08-01T02:15:12.418Z,75.76
2022-08-01T02:20:25.218Z,76.24
2022-08-01T02:25:33.159Z,76.13
2022-08-01T02:30:40.161Z,76.18
2022-08-01T02:35:47.438Z,76.05
2022-08-01T02:41:03.454Z,75.95
2022-08-01T02:46:11.709Z,76.02
2022-08-01T02:51:19.130Z,75.71
2022-08-01T02:56:27.127Z,75.84
2022-08-01T03:01:35.309Z,75.56
2022-08-01T03:06:41.532Z,74.78
2022-08-01T03:11:49.196Z,75.0
2022-08-01T03:16:55.952Z,75.32
2022-08-01T03:22:03.713Z,75.56
2022-08-01T03:27:11.350Z,75.86
2022-08-01T03:32:18.139Z,76.35
2022-08-01T03:37:25.978Z,76.66
2022-08-01T03:42:33.217Z,76.65
2022-08-01T03:47:40.561Z,76.23001
2022-08-01T03:52:48.756Z,76.32
2022-08-01T03:57:57.649Z,76.46
2022-08-01T04:03:05.272Z,76.88
2022-08-01T04:08:14.044Z,76.76
2022-08-01T04:13:22.005Z,76.89
2022-08-01T04:18:30.013Z,76.74
2022-08-01T04:23:37.851Z,77.03
2022-08-01T04:28:46.843Z,77.25
2022-08-01T04:33:54.139Z,77.2
2022-08-01T04:39:02.308Z,77.43
2022-08-01T04:44:10.580Z,77.7
2022-08-01T04:49:18.882Z,77.08
2022-08-01T04:54:26.130Z,76.9
2022-08-01T04:59:33.335Z,76.69
2022-08-01T05:04:40.729Z,77.25
2022-08-01T05:09:49.404Z,77.35
2022-08-01T05:14:55.691Z,77.45
2022-08-01T05:20:02.434Z,77.29
2022-08-01T05:25:09.712Z,77.47
2022-08-01T05:30:17.249Z,77.6
2022-08-01T05:35:25.045Z,77.66
2022-08-01T05:40:32.245Z,77.75
2022-08-01T05:45:40.791Z,77.23001
2022-08-01T05:50:48.501Z,76.66
2022-08-01T05:55:56.383Z,77.08
2022-08-01T06:01:02.943Z,76.51
2022-08-01T06:06:11.449Z,76.41
2022-08-01T06:11:19.389Z,76.37001
2022-08-01T06:16:27.731Z,76.53
2022-08-01T06:21:50.840Z,77.22
2022-08-01T06:26:59.273Z,75.68
2022-08-01T06:32:06.127Z,76.57
2022-08-01T06:37:13.841Z,77.04
2022-08-01T06:42:21.108Z,76.9
2022-08-01T06:47:27.669Z,76.83
2022-08-01T06:52:37.073Z,76.26
2022-08-01T06:57:44.053Z,76.03
2022-08-01T07:02:51.920Z,76.85
2022-08-01T07:08:00.132Z,75.92
2022-08-01T07:13:06.841Z,75.65
2022-08-01T07:18:14.932Z,74.96
2022-08-01T07:23:22.458Z,75.38
2022-08-01T07:28:29.386Z,74.49
2022-08-01T07:33:38.652Z,72.94
2022-08-01T07:38:45.363Z,70.94
2022-08-01T07:43:52.812Z,71.71
2022-08-01T07:48:59.747Z,70.14
2022-08-01T07:54:06.295Z,68.33
2022-08-01T07:59:14.118Z,67.48001
2022-08-01T08:04:22.349Z,67.66
2022-08-01T08:09:30.699Z,69.76
2022-08-01T08:14:38.805Z,68.02
2022-08-01T08:19:46.445Z,70.61
2022-08-01T08:24:54.866Z,68.97
2022-08-01T08:30:02.469Z,65.84
2022-08-01T08:35:11.159Z,67.17
2022-08-01T08:41:50.315Z,65.33
2022-08-01T08:46:56.856Z,65.48
2022-08-01T08:52:04.098Z,64.04
2022-08-01T08:57:11.981Z,64.05
2022-08-01T09:02:19.604Z,62.29
2022-08-01T09:07:26.943Z,63.04
2022-08-01T09:12:34.156Z,62.74
2022-08-01T09:17:40.701Z,55.22
2022-08-01T09:22:48.541Z,60.71
2022-08-01T09:27:56.890Z,59.7
2022-08-01T09:33:04.245Z,59.4
2022-08-01T09:38:11.662Z,64.79
2022-08-01T09:43:20.474Z,65.59
2022-08-01T09:48:27.738Z,67.7
2022-08-01T09:53:37.371Z,61.04
2022-08-01T09:58:44.728Z,59.66
2022-08-01T10:03:51.932Z,58.56
2022-08-01T10:08:59.772Z,61.76
2022-08-01T10:14:06.729Z,61.48
2022-08-01T10:19:14.709Z,58.66
2022-08-01T10:24:22.658Z,57.34
2022-08-01T10:29:29.815Z,58.18
2022-08-01T10:34:36.708Z,58.56
2022-08-01T10:39:44.395Z,61.09
2022-08-01T10:44:52.058Z,58.89
2022-08-01T10:49:59.681Z,58.85
2022-08-01T10:55:08.245Z,60.34
2022-08-01T11:00:15.785Z,62.01
2022-08-01T11:05:23.613Z,61.28
2022-08-01T11:10:30.822Z,59.63
2022-08-01T11:15:38.413Z,61.04
2022-08-01T11:20:46.313Z,61.61
2022-08-01T11:25:52.894Z,60.97
2022-08-01T11:31:00.702Z,60.98
2022-08-01T11:36:11.090Z,62.55
2022-08-01T11:41:19.284Z,63.75
2022-08-01T11:46:26.951Z,64.31
2022-08-01T11:51:34.966Z,64.28
2022-08-01T11:56:42.640Z,62.42
2022-08-01T12:01:50.295Z,61.0
2022-08-01T12:06:57.758Z,60.34
2022-08-01T12:12:05.116Z,58.62
2022-08-01T12:17:13.083Z,60.06
2022-08-01T12:22:19.952Z,61.85
2022-08-01T12:27:28.160Z,61.32
2022-08-01T12:32:36.147Z,62.4
2022-08-01T12:37:45.047Z,61.86
2022-08-01T12:42:53.521Z,60.27
2022-08-01T12:48:01.368Z,61.36
2022-08-01T12:53:08.057Z,60.22
2022-08-01T12:58:15.808Z,58.36
2022-08-01T13:03:24.025Z,55.34
2022-08-01T13:08:30.903Z,50.64
2022-08-01T13:13:38.137Z,49.81
2022-08-01T13:18:46.571Z,47.68
2022-08-01T13:23:54.958Z,51.59
2022-08-01T13:29:02.943Z,46.04
2022-08-01T13:34:10.178Z,50.46
2022-08-01T13:39:17.551Z,52.92
2022-08-01T13:44:25.120Z,55.08
2022-08-01T13:49:31.759Z,48.61
2022-08-01T13:54:39.574Z,46.71
2022-08-01T13:59:46.873Z,44.63
2022-08-01T14:04:54.485Z,43.85
2022-08-01T14:10:03.087Z,41.62
2022-08-01T14:15:09.655Z,43.12
2022-08-01T14:20:16.942Z,42.12
2022-08-01T14:25:24.729Z,41.82
2022-08-01T14:30:32.204Z,41.98
2022-08-01T14:35:39.701Z,40.25
2022-08-01T14:40:48.094Z,40.69
2022-08-01T14:45:56.500Z,39.59
2022-08-01T14:51:04.536Z,41.48
2022-08-01T14:56:11.701Z,45.0
2022-08-01T15:01:18.952Z,48.16
2022-08-01T15:06:26.776Z,44.54
2022-08-01T15:11:34.570Z,44.52
2022-08-01T15:16:41.694Z,44.76
2022-08-01T15:21:49.451Z,47.96
2022-08-01T15:26:56.943Z,48.35
2022-08-01T15:32:04.523Z,49.25
2022-08-01T16:03:28.987Z,52.56
2022-08-01T16:08:34.405Z,53.9
2022-08-01T16:13:42.005Z,54.7
2022-08-01T16:18:49.162Z,54.77
2022-08-01T16:23:55.772Z,55.37
2022-08-01T16:29:03.850Z,55.43
2022-08-01T16:34:11.863Z,54.71
2022-08-01T16:39:19.907Z,54.28
2022-08-01T16:44:26.488Z,53.42
2022-08-01T16:49:35.601Z,53.46
2022-08-01T16:54:43.413Z,54.39
2022-08-01T16:59:51.641Z,55.2
2022-08-01T17:04:58.463Z,55.43
2022-08-01T17:10:05.651Z,58.38
2022-08-01T17:15:13.548Z,59.25
2022-08-01T17:20:21.216Z,60.48
2022-08-01T17:25:28.915Z,62.19
2022-08-01T17:30:36.986Z,63.3
2022-08-01T17:35:45.147Z,64.56
2022-08-01T17:40:52.062Z,65.78
2022-08-01T17:46:00.699Z,66.67
2022-08-01T17:51:08.337Z,67.49
2022-08-01T17:56:16.275Z,67.79
2022-08-01T18:01:24.565Z,68.98
2022-08-01T18:06:31.943Z,70.06
2022-08-01T18:11:39.735Z,70.58
2022-08-01T18:16:46.941Z,71.58
2022-08-01T18:21:54.130Z,71.85
2022-08-01T18:27:02.554Z,72.01
2022-08-01T18:32:10.460Z,72.34
2022-08-01T18:37:18.970Z,72.61
2022-08-01T18:42:34.455Z,73.03
2022-08-01T18:47:42.330Z,73.13
2022-08-01T18:52:51.451Z,73.71
2022-08-01T18:57:58.650Z,74.44
2022-08-01T19:03:06.029Z,75.52
2022-08-01T19:08:12.572Z,75.67
2022-08-01T19:13:20.345Z,76.12
2022-08-01T19:18:28.538Z,77.01
2022-08-01T19:23:35.897Z,78.2
2022-08-01T19:28:43.828Z,79.02
2022-08-01T19:33:50.276Z,78.93
2022-08-01T19:39:03.685Z,79.06
2022-08-01T19:44:10.482Z,79.32
2022-08-01T19:49:18.252Z,79.32
2022-08-01T19:54:26.329Z,78.66001
2022-08-01T19:59:33.988Z,74.98001
2022-08-01T20:04:41.841Z,71.14
2022-08-01T20:09:48.388Z,81.21
2022-08-01T20:14:55.574Z,84.24
2022-08-01T20:20:03.695Z,85.71
2022-08-01T20:25:11.679Z,86.16
2022-08-01T20:30:19.516Z,86.75
2022-08-01T20:35:28.079Z,87.3
2022-08-01T20:40:35.418Z,87.46
2022-08-01T20:45:43.903Z,87.63
2022-08-01T20:50:52.331Z,87.58
2022-08-01T20:56:00.959Z,87.63
2022-08-01T21:01:09.120Z,87.82001
2022-08-01T21:06:16.871Z,88.04
2022-08-01T21:11:26.161Z,88.24
2022-08-01T21:16:35.915Z,88.43
2022-08-01T21:21:43.277Z,88.62
2022-08-01T21:26:51.223Z,88.71
2022-08-01T21:31:58.905Z,88.76
2022-08-01T21:37:07.495Z,88.94
2022-08-01T21:42:14.911Z,89.07001
2022-08-01T21:47:23.361Z,89.01999
2022-08-01T21:52:30.295Z,89.32
2022-08-01T21:57:38.122Z,89.46
2022-08-01T22:02:45.362Z,89.48001
2022-08-01T22:07:53.567Z,89.61
2022-08-01T22:13:00.579Z,89.59
2022-08-01T22:18:08.642Z,89.6
2022-08-01T22:23:16.236Z,89.73001
2022-08-01T22:28:23.946Z,89.75
2022-08-01T22:34:08.908Z,89.89
2022-08-01T22:39:16.063Z,89.89
2022-08-01T22:44:23.901Z,90.11001
2022-08-01T22:49:31.736Z,90.33999
2022-08-01T22:54:40.729Z,90.44001
2022-08-01T22:59:48.809Z,90.73001
2022-08-01T23:04:57.342Z,91.06
2022-08-01T23:10:05.105Z,91.3
2022-08-01T23:15:12.390Z,91.43001
2022-08-01T23:20:20.060Z,91.47
2022-08-01T23:25:27.568Z,91.58
2022-08-01T23:30:35.953Z,91.61
2022-08-01T23:35:43.606Z,91.74
2022-08-01T23:40:50.856Z,91.83001
2022-08-01T23:45:58.925Z,91.87
2022-08-01T23:51:07.066Z,91.83001
2022-08-01T23:56:15.450Z,91.75
